createdAt,value
2023-03-16T00:02:23.094Z,98762.25
2023-03-16T00:04:49.257Z,98764.09
2023-03-16T00:07:15.389Z,98754.44
2023-03-16T00:09:41.557Z,98760.59
2023-03-16T00:12:08.195Z,98760.41
2023-03-16T00:14:34.322Z,98759.78
2023-03-16T00:17:00.439Z,98752.59
2023-03-16T00:19:26.649Z,98757.13
2023-03-16T00:21:52.754Z,98755.28
2023-03-16T00:24:18.863Z,98754.44
2023-03-16T00:26:45.047Z,98753.59
2023-03-16T00:29:11.151Z,98755.28
2023-03-16T00:31:37.292Z,98751.97
2023-03-16T00:34:03.446Z,98758.94
2023-03-16T00:36:29.528Z,98758.13
2023-03-16T00:38:55.694Z,98748.47
2023-03-16T00:41:21.901Z,98746.63
2023-03-16T00:43:48.029Z,98743.13
2023-03-16T00:46:14.193Z,98732.66
2023-03-16T00:48:40.359Z,98730.63
2023-03-16T00:51:06.445Z,98743.13
2023-03-16T00:53:32.545Z,98737.81
2023-03-16T00:55:58.753Z,98733.47
2023-03-16T00:58:24.861Z,98742.31
2023-03-16T01:00:51.006Z,98742.31
2023-03-16T01:03:17.233Z,98734.31
2023-03-16T01:05:43.604Z,98731.00
2023-03-16T01:08:09.806Z,98732.66
2023-03-16T01:10:35.927Z,98731.84
2023-03-16T01:13:02.032Z,98737.97
2023-03-16T01:15:28.157Z,98740.66
2023-03-16T01:17:54.283Z,98753.16
2023-03-16T01:20:20.522Z,98751.50
2023-03-16T01:22:46.625Z,98754.16
2023-03-16T01:25:12.804Z,98747.00
2023-03-16T01:27:38.903Z,98748.81
2023-03-16T01:30:05.020Z,98750.66
2023-03-16T01:32:31.159Z,98740.00
2023-03-16T01:34:57.330Z,98735.50
2023-03-16T01:37:23.450Z,98729.34
2023-03-16T01:39:49.639Z,98725.84
2023-03-16T01:42:15.800Z,98721.34
2023-03-16T01:44:41.934Z,98701.88
2023-03-16T01:47:08.376Z,98704.53
2023-03-16T01:49:34.489Z,98708.22
2023-03-16T01:52:00.629Z,98698.38
2023-03-16T01:54:26.759Z,98691.38
2023-03-16T01:56:52.864Z,98691.38
2023-03-16T01:59:18.954Z,98686.91
2023-03-16T02:01:45.215Z,98671.91
2023-03-16T02:04:11.395Z,98678.03
2023-03-16T02:06:37.709Z,98671.91
2023-03-16T02:09:03.882Z,98672.72
2023-03-16T02:11:30.012Z,98679.06
2023-03-16T02:13:56.119Z,98677.22
2023-03-16T02:16:22.432Z,98665.75
2023-03-16T02:18:48.618Z,98650.78
2023-03-16T02:21:14.770Z,98656.09
2023-03-16T02:23:40.949Z,98648.28
2023-03-16T02:26:07.132Z,98640.28
2023-03-16T02:28:33.251Z,98636.59
2023-03-16T02:30:59.488Z,98629.63
2023-03-16T02:33:25.654Z,98634.97
2023-03-16T02:35:51.829Z,98627.97
2023-03-16T02:38:17.999Z,98615.47
2023-03-16T02:40:44.122Z,98611.97
2023-03-16T02:43:10.275Z,98606.63
2023-03-16T02:45:36.416Z,98606.63
2023-03-16T02:48:02.545Z,98604.19
2023-03-16T02:50:29.037Z,98613.63
2023-03-16T02:52:55.541Z,98600.50
2023-03-16T02:55:21.668Z,98602.34
2023-03-16T02:57:47.777Z,98607.84
2023-03-16T03:00:13.905Z,98604.19
2023-03-16T03:02:40.055Z,98604.19
2023-03-16T03:05:06.229Z,98597.19
2023-03-16T03:07:32.419Z,98600.69
2023-03-16T03:09:58.577Z,98591.84
2023-03-16T03:12:24.686Z,98591.03
2023-03-16T03:14:50.826Z,98598.22
2023-03-16T03:17:16.937Z,98592.88
2023-03-16T03:19:43.097Z,98584.88
2023-03-16T03:22:09.397Z,98580.38
2023-03-16T03:24:35.513Z,98591.03
2023-03-16T03:27:01.650Z,98585.91
2023-03-16T03:29:27.774Z,98590.22
2023-03-16T03:31:53.908Z,98576.06
2023-03-16T03:34:20.086Z,98572.56
2023-03-16T03:36:46.225Z,98566.41
2023-03-16T03:39:12.325Z,98554.75
2023-03-16T03:41:38.506Z,98567.25
2023-03-16T03:44:04.616Z,98565.59
2023-03-16T03:46:30.782Z,98577.91
2023-03-16T03:48:56.899Z,98569.06
2023-03-16T03:51:23.805Z,98570.91
2023-03-16T03:53:49.895Z,98570.28
2023-03-16T03:56:16.004Z,98567.59
2023-03-16T03:58:42.139Z,98564.94
2023-03-16T04:01:08.259Z,98572.94
2023-03-16T04:03:34.429Z,98564.13
2023-03-16T04:06:00.608Z,98563.31
2023-03-16T04:08:26.703Z,98560.63
2023-03-16T04:10:52.786Z,98559.81
2023-03-16T04:13:18.897Z,98567.81
2023-03-16T04:15:45.958Z,98553.66
2023-03-16T04:18:14.236Z,98563.47
2023-03-16T04:20:40.459Z,98560.81
2023-03-16T04:23:06.558Z,98552.00
2023-03-16T04:25:32.778Z,98554.66
2023-03-16T04:27:58.936Z,98559.81
2023-03-16T04:30:25.072Z,98566.97
2023-03-16T04:32:52.601Z,98564.31
2023-03-16T04:35:19.570Z,98554.66
2023-03-16T04:37:45.666Z,98558.16
2023-03-16T04:40:11.800Z,98544.00
2023-03-16T04:42:47.948Z,98546.84
2023-03-16T04:45:15.301Z,98551.19
2023-03-16T04:47:41.440Z,98557.34
2023-03-16T04:50:07.546Z,98552.00
2023-03-16T04:52:33.645Z,98558.38
2023-03-16T04:55:00.318Z,98554.03
2023-03-16T04:57:26.424Z,98561.03
2023-03-16T04:59:52.521Z,98548.69
2023-03-16T05:02:18.674Z,98557.50
2023-03-16T05:04:44.853Z,98553.22
2023-03-16T05:07:10.974Z,98558.53
2023-03-16T05:09:37.086Z,98556.69
2023-03-16T05:12:03.183Z,98554.03
2023-03-16T05:14:29.291Z,98549.72
2023-03-16T05:16:55.411Z,98544.41
2023-03-16T05:19:21.715Z,98550.72
2023-03-16T05:21:47.802Z,98544.41
2023-03-16T05:24:13.909Z,98546.25
2023-03-16T05:26:40.060Z,98551.56
2023-03-16T05:29:06.233Z,98545.41
2023-03-16T05:31:33.013Z,98545.41
2023-03-16T05:33:59.168Z,98541.72
2023-03-16T05:36:25.270Z,98533.91
2023-03-16T05:38:51.407Z,98539.06
2023-03-16T05:41:17.589Z,98548.91
2023-03-16T05:43:43.916Z,98547.06
2023-03-16T05:46:10.222Z,98554.25
2023-03-16T05:48:36.422Z,98551.56
2023-03-16T05:51:02.545Z,98540.06
2023-03-16T05:53:28.708Z,98534.72
2023-03-16T05:55:54.893Z,98542.72
2023-03-16T05:58:20.995Z,98534.72
2023-03-16T06:00:47.161Z,98536.59
2023-03-16T06:03:13.385Z,98542.94
2023-03-16T06:05:39.524Z,98553.38
2023-03-16T06:08:05.696Z,98549.09
2023-03-16T06:10:31.830Z,98542.94
2023-03-16T06:12:59.847Z,98544.75
2023-03-16T06:15:26.590Z,98552.75
2023-03-16T06:17:52.776Z,98532.47
2023-03-16T06:20:18.940Z,98529.78
2023-03-16T06:22:45.157Z,98540.47
2023-03-16T06:25:11.264Z,98546.59
2023-03-16T06:27:37.398Z,98550.28
2023-03-16T06:30:03.511Z,98542.09
2023-03-16T06:32:29.638Z,98547.41
2023-03-16T06:34:55.828Z,98548.44
2023-03-16T06:37:22.011Z,98544.97
2023-03-16T06:39:48.164Z,98543.13
2023-03-16T06:42:14.311Z,98551.94
2023-03-16T06:44:40.448Z,98538.81
2023-03-16T06:47:06.597Z,98551.13
2023-03-16T06:49:32.761Z,98550.28
2023-03-16T06:51:58.982Z,98544.16
2023-03-16T06:54:25.113Z,98536.16
2023-03-16T06:56:51.287Z,98537.97
2023-03-16T06:59:17.460Z,98542.47
2023-03-16T07:01:43.616Z,98543.50
2023-03-16T07:04:09.797Z,98541.66
2023-03-16T07:06:36.029Z,98541.66
2023-03-16T07:09:02.161Z,98555.81
2023-03-16T07:11:28.282Z,98544.31
2023-03-16T07:13:54.442Z,98554.16
2023-03-16T07:16:20.711Z,98553.13
2023-03-16T07:18:46.893Z,98555.81
2023-03-16T07:21:13.008Z,98559.50
2023-03-16T07:23:39.102Z,98556.84
2023-03-16T07:26:05.207Z,98558.69
2023-03-16T07:28:31.324Z,98554.97
2023-03-16T07:31:03.830Z,98548.84
2023-03-16T07:33:30.434Z,98549.66
2023-03-16T07:35:57.001Z,98556.84
2023-03-16T07:38:23.182Z,98555.16
2023-03-16T07:40:49.382Z,98572.81
2023-03-16T07:43:15.559Z,98567.50
2023-03-16T07:45:41.732Z,98574.66
2023-03-16T07:48:07.859Z,98565.81
2023-03-16T07:50:34.026Z,98562.16
2023-03-16T07:53:00.269Z,98557.00
2023-03-16T07:55:26.385Z,98560.50
2023-03-16T07:57:52.518Z,98571.16
2023-03-16T08:00:18.640Z,98575.66
2023-03-16T08:02:44.825Z,98574.84
2023-03-16T08:05:11.094Z,98585.50
2023-03-16T08:07:37.267Z,98576.47
2023-03-16T08:10:03.368Z,98580.00
2023-03-16T08:12:29.498Z,98576.47
2023-03-16T08:14:55.702Z,98579.16
2023-03-16T08:17:21.809Z,98574.84
2023-03-16T08:19:47.932Z,98572.19
2023-03-16T08:22:14.047Z,98568.69
2023-03-16T08:24:40.155Z,98569.50
2023-03-16T08:27:06.347Z,98570.50
2023-03-16T08:29:32.483Z,98564.19
2023-03-16T08:31:58.583Z,98573.19
2023-03-16T08:34:24.792Z,98558.84
2023-03-16T08:36:50.918Z,98560.69
2023-03-16T08:39:17.092Z,98553.53
2023-03-16T08:41:43.717Z,98550.03
2023-03-16T08:44:09.904Z,98546.53
2023-03-16T08:46:36.072Z,98546.75
2023-03-16T08:49:02.323Z,98550.22
2023-03-16T08:51:28.422Z,98555.56
2023-03-16T08:53:54.543Z,98559.84
2023-03-16T08:56:20.757Z,98561.69
2023-03-16T08:58:47.131Z,98551.03
2023-03-16T09:01:13.284Z,98566.22
2023-03-16T09:03:39.487Z,98551.03
2023-03-16T09:06:05.672Z,98545.72
2023-03-16T09:08:31.796Z,98547.56
2023-03-16T09:10:58.375Z,98551.84
2023-03-16T09:13:24.533Z,98559.25
2023-03-16T09:15:50.701Z,98569.69
2023-03-16T09:18:16.953Z,98565.38
2023-03-16T09:20:43.143Z,98559.25
2023-03-16T09:23:09.323Z,98557.41
2023-03-16T09:25:35.495Z,98566.22
2023-03-16T09:28:01.679Z,98563.53
2023-03-16T09:30:28.201Z,98568.06
2023-03-16T09:32:54.548Z,98568.88
2023-03-16T09:35:20.741Z,98575.03
2023-03-16T09:38:04.763Z,98565.38
2023-03-16T09:40:32.086Z,98571.53
2023-03-16T09:42:58.300Z,98565.38
2023-03-16T09:45:24.484Z,98578.72
2023-03-16T09:47:50.854Z,98574.19
2023-03-16T09:50:17.110Z,98569.06
2023-03-16T09:52:43.307Z,98582.19
2023-03-16T09:55:09.795Z,98576.03
2023-03-16T09:57:35.935Z,98567.25
2023-03-16T10:00:02.113Z,98569.91
2023-03-16T10:02:28.319Z,98570.72
2023-03-16T10:04:54.480Z,98571.53
2023-03-16T10:07:20.694Z,98570.50
2023-03-16T10:09:47.077Z,98566.22
2023-03-16T10:12:13.259Z,98557.41
2023-03-16T10:14:39.621Z,98555.56
2023-03-16T10:17:06.065Z,98554.72
2023-03-16T10:19:32.380Z,98554.72
2023-03-16T10:21:58.492Z,98552.88
2023-03-16T10:24:24.720Z,98555.56
2023-03-16T10:26:50.909Z,98555.56
2023-03-16T10:29:17.090Z,98562.50
2023-03-16T10:31:43.335Z,98558.03
2023-03-16T10:34:09.649Z,98548.38
2023-03-16T10:36:35.926Z,98550.03
2023-03-16T10:39:02.155Z,98553.53
2023-03-16T10:41:28.478Z,98545.72
2023-03-16T10:43:54.770Z,98528.72
2023-03-16T10:46:21.082Z,98540.19
2023-03-16T10:48:47.707Z,98543.69
2023-03-16T10:51:13.845Z,98532.22
2023-03-16T10:53:40.045Z,98536.72
2023-03-16T10:56:06.222Z,98536.72
2023-03-16T10:58:32.450Z,98551.03
2023-03-16T11:00:58.672Z,98544.72
2023-03-16T11:03:24.957Z,98540.38
2023-03-16T11:05:51.169Z,98547.38
2023-03-16T11:08:17.448Z,98543.88
2023-03-16T11:10:55.016Z,98540.19
2023-03-16T11:13:22.622Z,98534.06
2023-03-16T11:15:48.759Z,98517.84
2023-03-16T11:18:14.923Z,98510.88
2023-03-16T11:20:41.132Z,98518.88
2023-03-16T11:23:07.301Z,98514.38
2023-03-16T11:25:33.427Z,98516.22
2023-03-16T11:27:59.728Z,98516.22
2023-03-16T11:30:25.865Z,98509.88
2023-03-16T11:32:52.170Z,98501.06
2023-03-16T11:35:18.327Z,98486.72
2023-03-16T11:37:44.431Z,98486.72
2023-03-16T11:40:10.539Z,98493.88
2023-03-16T11:42:36.694Z,98484.06
2023-03-16T11:45:02.791Z,98487.56
2023-03-16T11:47:28.908Z,98476.88
2023-03-16T11:49:55.109Z,98479.56
2023-03-16T11:52:21.203Z,98461.72
2023-03-16T11:54:47.295Z,98459.22
2023-03-16T11:57:13.421Z,98456.41
2023-03-16T11:59:40.900Z,98451.88
2023-03-16T12:02:08.492Z,98446.56
2023-03-16T12:04:34.717Z,98442.88
2023-03-16T12:07:00.839Z,98453.53
2023-03-16T12:09:26.939Z,98453.53
2023-03-16T12:11:53.069Z,98456.22
2023-03-16T12:14:19.174Z,98449.22
2023-03-16T12:16:49.512Z,98448.00
2023-03-16T12:19:16.159Z,98450.66
2023-03-16T12:21:42.263Z,98438.16
2023-03-16T12:24:08.381Z,98441.69
2023-03-16T12:26:34.504Z,98423.19
2023-03-16T12:29:00.635Z,98422.16
2023-03-16T12:31:26.749Z,98398.41
2023-03-16T12:33:52.953Z,98385.91
2023-03-16T12:36:19.076Z,98387.53
2023-03-16T12:38:45.177Z,98390.84
2023-03-16T12:41:11.307Z,98382.19
2023-03-16T12:43:37.450Z,98371.53
2023-03-16T12:46:03.612Z,98369.72
2023-03-16T12:48:29.907Z,98366.22
2023-03-16T12:50:56.026Z,98355.38
2023-03-16T12:53:22.140Z,98356.19
2023-03-16T12:55:48.248Z,98354.38
2023-03-16T12:58:14.336Z,98354.38
2023-03-16T13:00:40.497Z,98353.34
2023-03-16T13:03:06.654Z,98345.34
2023-03-16T13:05:32.821Z,98351.50
2023-03-16T13:07:58.964Z,98345.34
2023-03-16T13:10:25.069Z,98347.19
2023-03-16T13:12:51.184Z,98335.50
2023-03-16T13:15:17.290Z,98336.31
2023-03-16T13:17:43.483Z,98335.50
2023-03-16T13:20:11.818Z,98326.50
2023-03-16T13:22:37.995Z,98326.50
2023-03-16T13:25:04.128Z,98321.19
2023-03-16T13:27:30.219Z,98311.34
2023-03-16T13:29:56.341Z,98315.63
2023-03-16T13:32:22.449Z,98318.28
2023-03-16T13:34:48.544Z,98312.16
2023-03-16T13:37:14.667Z,98311.97
2023-03-16T13:39:40.821Z,98297.78
2023-03-16T13:42:06.992Z,98283.66
2023-03-16T13:44:33.121Z,98294.13
2023-03-16T13:46:59.243Z,98289.78
2023-03-16T13:49:25.610Z,98285.09
2023-03-16T13:51:51.697Z,98276.28
2023-03-16T13:54:17.873Z,98273.63
2023-03-16T13:56:44.100Z,98282.44
2023-03-16T13:59:10.197Z,98272.81
2023-03-16T14:01:36.418Z,98283.88
2023-03-16T14:04:02.622Z,98275.06
2023-03-16T14:06:28.809Z,98263.41
2023-03-16T14:08:54.967Z,98252.75
2023-03-16T14:11:21.092Z,98250.25
2023-03-16T14:13:47.207Z,98241.22
2023-03-16T14:16:13.431Z,98226.09
2023-03-16T14:18:39.647Z,98231.41
2023-03-16T14:21:05.804Z,98233.06
2023-03-16T14:23:31.926Z,98234.91
2023-03-16T14:25:58.055Z,98216.25
2023-03-16T14:28:24.152Z,98204.78
2023-03-16T14:30:50.334Z,98211.72
2023-03-16T14:33:16.494Z,98207.22
2023-03-16T14:35:42.630Z,98191.22
2023-03-16T14:38:08.799Z,98188.38
2023-03-16T14:40:35.222Z,98183.84
2023-03-16T14:43:01.428Z,98177.72
2023-03-16T14:45:27.772Z,98181.19
2023-03-16T14:47:54.054Z,98178.34
2023-03-16T14:50:20.284Z,98162.34
2023-03-16T14:52:46.470Z,98174.81
2023-03-16T14:55:12.666Z,98169.31
2023-03-16T14:57:38.872Z,98165.63
2023-03-16T15:00:05.133Z,98165.63
2023-03-16T15:02:31.292Z,98167.25
2023-03-16T15:04:57.460Z,98151.28
2023-03-16T15:07:23.915Z,98150.25
2023-03-16T15:09:50.179Z,98145.75
2023-03-16T15:12:16.378Z,98146.75
2023-03-16T15:14:42.581Z,98136.91
2023-03-16T15:17:08.708Z,98142.06
2023-03-16T15:19:34.907Z,98146.56
2023-03-16T15:22:01.215Z,98135.91
2023-03-16T15:24:27.529Z,98124.19
2023-03-16T15:26:55.768Z,98118.06
2023-03-16T15:29:22.149Z,98111.69
2023-03-16T15:31:48.466Z,98103.69
2023-03-16T15:34:14.659Z,98095.69
2023-03-16T15:36:40.868Z,98106.16
2023-03-16T15:39:07.094Z,98100.03
2023-03-16T15:41:46.825Z,98090.19
2023-03-16T15:44:13.686Z,98085.66
2023-03-16T15:46:39.979Z,98087.31
2023-03-16T15:49:06.228Z,98084.66
2023-03-16T15:51:32.436Z,98084.66
2023-03-16T15:53:58.717Z,98094.28
2023-03-16T15:56:24.869Z,98083.63
2023-03-16T15:58:51.208Z,98081.75
2023-03-16T16:01:17.512Z,98087.94
2023-03-16T16:03:43.716Z,98081.56
2023-03-16T16:06:10.087Z,98077.06
2023-03-16T16:08:36.313Z,98066.38
2023-03-16T16:11:05.214Z,98058.41
2023-03-16T16:13:44.310Z,98066.38
2023-03-16T16:16:11.230Z,98053.88
2023-03-16T16:18:37.515Z,98056.34
2023-03-16T16:21:03.751Z,98052.06
2023-03-16T16:23:30.069Z,98051.84
2023-03-16T16:25:56.297Z,98044.06
2023-03-16T16:28:22.485Z,98044.06
2023-03-16T16:30:48.662Z,98040.53
2023-03-16T16:33:14.999Z,98035.84
2023-03-16T16:35:41.229Z,98041.97
2023-03-16T16:38:07.486Z,98034.81
2023-03-16T16:40:33.648Z,98035.44
2023-03-16T16:42:59.771Z,98034.59
2023-03-16T16:45:25.923Z,98023.94
2023-03-16T16:47:52.223Z,98021.50
2023-03-16T16:50:18.363Z,98008.97
2023-03-16T16:52:44.553Z,98029.06
2023-03-16T16:55:10.691Z,98025.59
2023-03-16T16:57:36.870Z,98025.59
2023-03-16T17:00:03.007Z,98030.94
2023-03-16T17:02:29.165Z,98041.59
2023-03-16T17:04:55.403Z,98042.41
2023-03-16T17:07:21.613Z,98040.78
2023-03-16T17:09:47.822Z,98040.56
2023-03-16T17:12:13.928Z,98037.06
2023-03-16T17:14:40.053Z,98044.03
2023-03-16T17:17:06.238Z,98033.38
2023-03-16T17:19:32.468Z,98033.38
2023-03-16T17:21:58.590Z,98026.41
2023-03-16T17:24:24.701Z,98038.72
2023-03-16T17:26:50.908Z,98027.22
2023-03-16T17:29:17.011Z,98026.22
2023-03-16T17:31:43.145Z,98031.56
2023-03-16T17:34:09.269Z,98026.22
2023-03-16T17:36:35.432Z,98033.19
2023-03-16T17:39:01.575Z,98030.50
2023-03-16T17:41:27.714Z,98031.31
2023-03-16T17:43:53.872Z,98035.84
2023-03-16T17:46:20.013Z,98041.19
2023-03-16T17:48:46.162Z,98032.38
2023-03-16T17:51:12.324Z,98032.38
2023-03-16T17:53:38.881Z,98029.69
2023-03-16T17:56:04.982Z,98023.56
2023-03-16T17:58:31.098Z,98039.56
2023-03-16T18:00:57.219Z,98033.38
2023-03-16T18:03:23.327Z,98034.22
2023-03-16T18:05:49.456Z,98030.72
2023-03-16T18:08:15.580Z,98039.56
2023-03-16T18:10:41.695Z,98046.69
2023-03-16T18:13:07.830Z,98037.88
2023-03-16T18:15:33.990Z,98048.38
2023-03-16T18:18:00.139Z,98044.88
2023-03-16T18:20:26.303Z,98050.22
2023-03-16T18:22:54.322Z,98051.84
2023-03-16T18:25:20.460Z,98050.81
2023-03-16T18:27:46.658Z,98050.66
2023-03-16T18:30:12.779Z,98051.47
2023-03-16T18:32:38.898Z,98042.44
2023-03-16T18:35:05.100Z,98049.63
2023-03-16T18:37:31.310Z,98043.25
2023-03-16T18:39:57.465Z,98028.06
2023-03-16T18:42:23.634Z,98054.56
2023-03-16T18:44:49.753Z,98051.66
2023-03-16T18:47:15.926Z,98049.00
2023-03-16T18:49:42.164Z,98047.38
2023-03-16T18:52:08.278Z,98037.50
2023-03-16T18:54:34.421Z,98042.84
2023-03-16T18:57:00.596Z,98037.50
2023-03-16T18:59:26.801Z,98040.19
2023-03-16T19:01:53.038Z,98047.38
2023-03-16T19:04:19.332Z,98046.31
2023-03-16T19:06:45.505Z,98041.22
2023-03-16T19:09:11.650Z,98034.84
2023-03-16T19:11:37.771Z,98043.66
2023-03-16T19:14:03.925Z,98049.00
2023-03-16T19:16:30.095Z,98047.38
2023-03-16T19:18:56.202Z,98047.16
2023-03-16T19:21:22.528Z,98042.84
2023-03-16T19:23:48.671Z,98040.41
2023-03-16T19:26:14.814Z,98043.88
2023-03-16T19:28:41.003Z,98043.66
2023-03-16T19:31:07.127Z,98026.03
2023-03-16T19:33:33.226Z,98035.06
2023-03-16T19:35:59.785Z,98036.88
2023-03-16T19:38:26.232Z,98032.41
2023-03-16T19:40:52.349Z,98036.88
2023-03-16T19:43:18.603Z,98044.06
2023-03-16T19:45:44.798Z,98050.22
2023-03-16T19:48:10.957Z,98042.03
2023-03-16T19:50:37.127Z,98046.75
2023-03-16T19:53:03.222Z,98033.41
2023-03-16T19:55:29.544Z,98036.06
2023-03-16T19:57:55.840Z,98033.41
2023-03-16T20:00:21.947Z,98037.75
2023-03-16T20:02:48.057Z,98030.75
2023-03-16T20:05:14.268Z,98031.56
2023-03-16T20:07:40.367Z,98043.88
2023-03-16T20:10:06.505Z,98059.88
2023-03-16T20:12:32.721Z,98046.56
2023-03-16T20:14:58.820Z,98040.19
2023-03-16T20:17:24.927Z,98041.22
2023-03-16T20:19:51.914Z,98052.88
2023-03-16T20:22:18.021Z,98045.75
2023-03-16T20:24:44.321Z,98037.75
2023-03-16T20:27:10.462Z,98034.22
2023-03-16T20:29:36.626Z,98028.06
2023-03-16T20:32:02.760Z,98029.94
2023-03-16T20:34:28.963Z,98023.56
2023-03-16T20:36:55.112Z,98017.41
2023-03-16T20:39:21.284Z,98013.94
2023-03-16T20:41:47.429Z,98018.44
2023-03-16T20:44:13.534Z,98014.75
2023-03-16T20:46:39.724Z,98008.59
2023-03-16T20:49:05.906Z,98018.44
2023-03-16T20:51:32.030Z,98003.47
2023-03-16T20:53:58.154Z,98000.59
2023-03-16T20:56:24.263Z,97993.63
2023-03-16T20:58:50.362Z,97989.13
2023-03-16T21:01:16.515Z,97984.59
2023-03-16T21:03:42.710Z,97983.78
2023-03-16T21:06:08.821Z,97983.78
2023-03-16T21:08:34.925Z,97983.78
2023-03-16T21:11:01.177Z,97971.28
2023-03-16T21:13:27.334Z,97974.75
2023-03-16T21:15:53.464Z,97971.47
2023-03-16T21:18:19.972Z,97953.66
2023-03-16T21:20:46.086Z,97953.66
2023-03-16T21:23:12.187Z,97939.47
2023-03-16T21:25:38.403Z,97950.13
2023-03-16T21:28:04.514Z,97962.47
2023-03-16T21:30:30.637Z,97958.97
2023-03-16T21:32:56.853Z,97951.19
2023-03-16T21:35:23.035Z,97944.81
2023-03-16T21:37:49.217Z,97945.84
2023-03-16T21:40:15.778Z,97927.19
2023-03-16T21:42:41.883Z,97941.31
2023-03-16T21:45:07.966Z,97930.81
2023-03-16T21:47:34.084Z,97932.50
2023-03-16T21:50:00.207Z,97931.66
2023-03-16T21:52:26.314Z,97936.16
2023-03-16T21:54:52.423Z,97946.00
2023-03-16T21:57:18.507Z,97929.19
2023-03-16T21:59:44.633Z,97935.19
2023-03-16T22:02:10.833Z,97929.19
2023-03-16T22:04:36.973Z,97931.66
2023-03-16T22:07:03.057Z,97924.69
2023-03-16T22:09:29.193Z,97923.06
2023-03-16T22:11:55.282Z,97920.38
2023-03-16T22:14:21.406Z,97923.06
2023-03-16T22:16:47.584Z,97922.25
2023-03-16T22:19:13.700Z,97921.41
2023-03-16T22:21:40.037Z,97914.25
2023-03-16T22:24:06.238Z,97907.06
2023-03-16T22:26:32.423Z,97913.41
2023-03-16T22:28:58.527Z,97909.72
2023-03-16T22:31:25.144Z,97900.06
2023-03-16T22:33:51.273Z,97896.38
2023-03-16T22:36:17.533Z,97890.25
2023-03-16T22:38:43.684Z,97884.91
2023-03-16T22:41:09.873Z,97882.25
2023-03-16T22:43:35.981Z,97858.25
2023-03-16T22:46:02.212Z,97854.53
2023-03-16T22:48:28.336Z,97857.41
2023-03-16T22:50:54.523Z,97867.25
2023-03-16T22:53:20.628Z,97869.72
2023-03-16T22:55:46.743Z,97872.59
2023-03-16T22:58:12.831Z,97870.75
2023-03-16T23:00:38.973Z,97857.41
2023-03-16T23:03:05.363Z,97854.75
2023-03-16T23:05:31.759Z,97858.25
2023-03-16T23:07:57.997Z,97840.59
2023-03-16T23:10:24.097Z,97837.13
2023-03-16T23:12:50.210Z,97824.84
2023-03-16T23:15:16.310Z,97814.97
2023-03-16T23:17:42.422Z,97822.97
2023-03-16T23:20:08.525Z,97824.84
2023-03-16T23:22:34.666Z,97829.31
2023-03-16T23:25:00.826Z,97806.19
2023-03-16T23:27:30.111Z,97828.50
2023-03-16T23:29:56.284Z,97836.31
2023-03-16T23:32:22.385Z,97827.50
2023-03-16T23:34:48.521Z,97842.66
2023-03-16T23:37:14.703Z,97827.69
2023-03-16T23:39:40.815Z,97838.38
2023-03-16T23:42:06.918Z,97846.38
2023-03-16T23:44:33.046Z,97838.38
2023-03-16T23:46:59.152Z,97842.66
2023-03-16T23:49:25.262Z,97830.38
2023-03-16T23:51:51.375Z,97841.03
2023-03-16T23:54:17.472Z,97829.56
2023-03-16T23:56:43.575Z,97839.38
2023-03-16T23:59:09.702Z,97827.69
